Time;durP1;ratioP1;P1;durP2;ratioP2;P2;SDS_P1;SDS_P2;PMS_P1;PMS_P2;Temp;Humidity;BMP_temperature;BMP_pressure;BME280_temperature;BME280_humidity;BME280_pressure;Samples;Min_cycle;Max_cycle;Signal;HPM_P1;HPM_P2
2022/07/21 00:01:05;;;;;;;7.90;5.80;;;;;;;;;;720353;193;924765;-58
2022/07/21 00:03:30;;;;;;;10.67;5.87;;;;;;;;;;722870;193;919322;-59
2022/07/21 00:05:56;;;;;;;7.50;5.27;;;;;;;;;;723724;191;822978;-58
2022/07/21 00:08:22;;;;;;;7.22;4.85;;;;;;;;;;726588;193;918410;-59
2022/07/21 00:10:48;;;;;;;7.93;6.07;;;;;;;;;;720491;190;918708;-58
2022/07/21 00:13:14;;;;;;;8.37;5.93;;;;;;;;;;725140;191;919962;-58
2022/07/21 00:15:40;;;;;;;8.90;5.53;;;;;;;;;;728275;191;906863;-58
2022/07/21 00:18:06;;;;;;;7.90;5.50;;;;;;;;;;728473;190;918569;-58
2022/07/21 00:20:32;;;;;;;9.23;5.40;;;;;;;;;;722672;193;918513;-58
2022/07/21 00:22:57;;;;;;;8.00;6.07;;;;;;;;;;726394;191;917962;-58
2022/07/21 00:25:23;;;;;;;11.87;5.80;;;;;;;;;;722655;190;819290;-57
2022/07/21 00:27:49;;;;;;;6.90;5.20;;;;;;;;;;722663;193;918555;-56
2022/07/21 00:30:15;;;;;;;12.63;5.23;;;;;;;;;;723556;190;914283;-58
2022/07/21 00:32:41;;;;;;;7.23;5.50;;;;;;;;;;734749;191;853282;-57
2022/07/21 00:35:07;;;;;;;8.17;6.03;;;;;;;;;;723228;190;917335;-58
2022/07/21 00:37:33;;;;;;;7.87;5.10;;;;;;;;;;721320;191;920544;-58
2022/07/21 00:39:58;;;;;;;12.90;6.90;;;;;;;;;;729419;193;919664;-57
2022/07/21 00:42:24;;;;;;;7.57;5.77;;;;;;;;;;722554;191;840899;-57
2022/07/21 00:44:50;;;;;;;7.20;6.07;;;;;;;;;;722576;191;915351;-57
2022/07/21 00:47:16;;;;;;;12.67;5.63;;;;;;;;;;725543;191;914973;-58
2022/07/21 00:49:44;;;;;;;9.23;4.83;;;;;;;;;;721696;190;923214;-58
2022/07/21 00:52:08;;;;;;;13.30;6.72;;;;;;;;;;720565;190;920544;-58
2022/07/21 00:54:34;;;;;;;9.87;7.07;;;;;;;;;;724377;191;916982;-58
2022/07/21 00:56:59;;;;;;;7.80;7.00;;;;;;;;;;722397;191;918881;-59
2022/07/21 00:59:25;;;;;;;12.27;7.53;;;;;;;;;;723099;190;920171;-58
2022/07/21 01:01:51;;;;;;;11.23;7.63;;;;;;;;;;716170;194;818847;-58
2022/07/21 01:04:17;;;;;;;10.60;7.43;;;;;;;;;;727037;192;854225;-58
2022/07/21 01:06:43;;;;;;;8.83;7.90;;;;;;;;;;721917;193;919251;-57
2022/07/21 01:09:10;;;;;;;8.83;5.67;;;;;;;;;;721996;191;820410;-59
2022/07/21 01:11:34;;;;;;;11.13;5.60;;;;;;;;;;725429;191;816971;-58
2022/07/21 01:14:00;;;;;;;9.03;6.37;;;;;;;;;;722527;191;904882;-58
2022/07/21 01:16:26;;;;;;;8.70;5.27;;;;;;;;;;722297;190;921789;-59
2022/07/21 01:18:52;;;;;;;8.90;6.22;;;;;;;;;;726395;192;816744;-58
2022/07/21 01:21:18;;;;;;;9.27;5.87;;;;;;;;;;722333;190;916347;-59
2022/07/21 01:23:44;;;;;;;11.50;6.83;;;;;;;;;;724942;191;815845;-58
2022/07/21 01:26:10;;;;;;;17.07;6.90;;;;;;;;;;722950;190;918149;-69
2022/07/21 01:28:36;;;;;;;8.53;7.17;;;;;;;;;;726338;190;919095;-58
2022/07/21 01:31:02;;;;;;;9.80;7.60;;;;;;;;;;722902;191;916270;-58
2022/07/21 01:33:28;;;;;;;9.07;6.60;;;;;;;;;;722058;193;919485;-57
2022/07/21 01:35:54;;;;;;;8.10;5.60;;;;;;;;;;726622;193;919216;-57
2022/07/21 01:43:23;;;;;;;8.23;6.70;;;;;;;;;;722762;193;919861;-58
2022/07/21 01:45:49;;;;;;;7.90;6.17;;;;;;;;;;727127;190;915631;-59
2022/07/21 01:48:14;;;;;;;10.83;5.90;;;;;;;;;;721648;191;896193;-57
2022/07/21 01:50:40;;;;;;;7.67;6.30;;;;;;;;;;722110;192;922234;-59
2022/07/21 01:53:06;;;;;;;6.87;5.90;;;;;;;;;;726005;193;923055;-58
2022/07/21 01:55:33;;;;;;;9.23;6.17;;;;;;;;;;723936;193;888027;-58
2022/07/21 01:57:58;;;;;;;12.07;7.10;;;;;;;;;;726882;192;916030;-57
2022/07/21 02:00:24;;;;;;;9.60;7.23;;;;;;;;;;720655;191;922084;-59
2022/07/21 02:02:49;;;;;;;10.97;8.97;;;;;;;;;;731108;191;815365;-58
2022/07/21 02:05:15;;;;;;;10.73;8.03;;;;;;;;;;726785;191;619832;-59
2022/07/21 02:07:41;;;;;;;11.30;8.80;;;;;;;;;;723137;191;918902;-58
2022/07/21 02:10:07;;;;;;;18.27;9.47;;;;;;;;;;725278;192;916100;-58
2022/07/21 02:12:33;;;;;;;13.90;9.33;;;;;;;;;;723968;193;817229;-58
2022/07/21 02:14:59;;;;;;;12.40;7.85;;;;;;;;;;720464;191;919657;-58
2022/07/21 02:17:25;;;;;;;9.37;7.40;;;;;;;;;;728746;191;816602;-58
2022/07/21 02:19:51;;;;;;;9.50;6.77;;;;;;;;;;726127;192;818275;-58
2022/07/21 02:22:17;;;;;;;10.57;7.53;;;;;;;;;;723432;193;920012;-59
2022/07/21 02:24:42;;;;;;;8.60;6.30;;;;;;;;;;724785;191;887428;-59
2022/07/21 02:27:08;;;;;;;8.50;6.50;;;;;;;;;;735799;188;918303;-59
2022/07/21 02:29:34;;;;;;;20.65;7.85;;;;;;;;;;721989;191;918939;-58
2022/07/21 02:32:00;;;;;;;11.52;5.60;;;;;;;;;;723164;191;917408;-59
2022/07/21 02:34:26;;;;;;;8.90;6.40;;;;;;;;;;729919;190;919551;-58
2022/07/21 02:36:52;;;;;;;7.23;6.03;;;;;;;;;;722846;190;919341;-59
2022/07/21 02:39:18;;;;;;;10.97;7.03;;;;;;;;;;728181;192;817833;-57
2022/07/21 02:41:43;;;;;;;7.60;6.23;;;;;;;;;;727641;190;918859;-58
2022/07/21 02:44:09;;;;;;;12.47;7.10;;;;;;;;;;723480;191;920771;-57
2022/07/21 02:46:35;;;;;;;13.43;7.30;;;;;;;;;;725966;190;885185;-62
2022/07/21 02:49:01;;;;;;;8.37;7.30;;;;;;;;;;728226;193;919173;-58
2022/07/21 02:51:27;;;;;;;10.00;6.87;;;;;;;;;;725433;191;636656;-59
2022/07/21 02:53:53;;;;;;;13.07;7.43;;;;;;;;;;724154;190;913555;-57
2022/07/21 02:56:18;;;;;;;10.60;7.70;;;;;;;;;;720692;190;920154;-59
2022/07/21 02:58:44;;;;;;;14.73;7.20;;;;;;;;;;728788;191;919082;-59
2022/07/21 03:01:10;;;;;;;9.67;7.00;;;;;;;;;;722030;192;880341;-58
2022/07/21 03:03:36;;;;;;;9.70;6.43;;;;;;;;;;720772;190;922709;-58
2022/07/21 03:06:02;;;;;;;8.60;6.43;;;;;;;;;;726999;193;803800;-57
2022/07/21 03:08:28;;;;;;;9.10;6.77;;;;;;;;;;722293;193;920423;-58
2022/07/21 03:10:54;;;;;;;11.10;6.93;;;;;;;;;;720653;191;918187;-59
2022/07/21 03:13:19;;;;;;;10.43;7.87;;;;;;;;;;727122;191;923331;-57
2022/07/21 03:15:45;;;;;;;8.93;7.40;;;;;;;;;;720304;191;919138;-60
2022/07/21 03:18:11;;;;;;;11.93;7.25;;;;;;;;;;720201;191;914642;-59
2022/07/21 03:20:37;;;;;;;9.88;7.12;;;;;;;;;;723331;190;852348;-59
2022/07/21 03:23:03;;;;;;;19.63;6.90;;;;;;;;;;734092;189;940576;-58
2022/07/21 03:25:29;;;;;;;8.70;6.37;;;;;;;;;;719006;190;918988;-58
2022/07/21 03:27:55;;;;;;;9.70;7.17;;;;;;;;;;721879;191;859199;-59
2022/07/21 03:30:21;;;;;;;11.60;7.43;;;;;;;;;;726585;192;821538;-59
2022/07/21 03:32:46;;;;;;;8.07;7.27;;;;;;;;;;722797;193;915166;-59
2022/07/21 03:35:12;;;;;;;11.37;7.60;;;;;;;;;;721942;193;913381;-59
2022/07/21 03:37:41;;;;;;;10.77;8.23;;;;;;;;;;726987;190;823983;-57
2022/07/21 03:40:07;;;;;;;10.63;8.10;;;;;;;;;;723541;190;715912;-57
2022/07/21 03:42:33;;;;;;;8.37;6.87;;;;;;;;;;721479;191;917013;-57
2022/07/21 03:44:59;;;;;;;9.80;7.40;;;;;;;;;;722253;191;922988;-59
2022/07/21 03:47:25;;;;;;;8.77;6.97;;;;;;;;;;736077;189;920259;-57
2022/07/21 03:49:51;;;;;;;13.17;8.13;;;;;;;;;;723446;191;919385;-58
2022/07/21 03:52:16;;;;;;;9.80;7.87;;;;;;;;;;721176;191;919456;-58
2022/07/21 03:54:42;;;;;;;13.77;9.20;;;;;;;;;;727883;190;915752;-59
2022/07/21 03:57:08;;;;;;;12.32;8.23;;;;;;;;;;722074;191;919609;-60
2022/07/21 03:59:34;;;;;;;13.20;8.60;;;;;;;;;;723952;193;918995;-58
2022/07/21 04:02:00;;;;;;;11.10;9.53;;;;;;;;;;727153;193;836363;-61
2022/07/21 04:04:26;;;;;;;16.30;11.93;;;;;;;;;;724015;193;915680;-57
2022/07/21 04:06:51;;;;;;;19.13;11.40;;;;;;;;;;722481;192;918686;-59
2022/07/21 04:09:17;;;;;;;14.53;12.03;;;;;;;;;;727150;191;817423;-60
2022/07/21 04:11:43;;;;;;;19.40;16.10;;;;;;;;;;722178;191;942935;-58
2022/07/21 04:14:09;;;;;;;19.80;16.80;;;;;;;;;;722275;192;816835;-58
2022/07/21 04:16:35;;;;;;;22.10;16.50;;;;;;;;;;720525;191;942264;-59
2022/07/21 04:19:01;;;;;;;21.03;15.70;;;;;;;;;;728994;192;816716;-59
2022/07/21 04:21:27;;;;;;;17.13;13.97;;;;;;;;;;724511;191;891353;-59
2022/07/21 04:23:52;;;;;;;17.87;13.40;;;;;;;;;;723727;191;922680;-59
2022/07/21 04:26:18;;;;;;;17.50;11.50;;;;;;;;;;724655;191;927717;-57
2022/07/21 04:28:44;;;;;;;14.70;11.83;;;;;;;;;;722273;191;922345;-58
2022/07/21 04:31:10;;;;;;;16.30;12.27;;;;;;;;;;720389;193;815175;-57
2022/07/21 04:33:36;;;;;;;11.50;10.30;;;;;;;;;;725329;191;891161;-57
2022/07/21 04:36:02;;;;;;;14.20;9.90;;;;;;;;;;721550;190;919854;-57
2022/07/21 04:38:27;;;;;;;14.10;9.97;;;;;;;;;;723044;190;865095;-58
2022/07/21 04:40:53;;;;;;;13.10;8.30;;;;;;;;;;723508;193;922400;-60
2022/07/21 04:43:19;;;;;;;16.50;9.00;;;;;;;;;;726266;193;921532;-58
2022/07/21 04:45:45;;;;;;;10.20;7.90;;;;;;;;;;723934;190;820270;-58
2022/07/21 04:48:11;;;;;;;11.13;8.60;;;;;;;;;;721222;191;921615;-59
2022/07/21 04:50:37;;;;;;;16.90;8.60;;;;;;;;;;728595;191;820968;-57
2022/07/21 04:53:02;;;;;;;9.93;8.60;;;;;;;;;;724002;193;919581;-59
2022/07/21 04:55:28;;;;;;;12.43;8.90;;;;;;;;;;724458;190;816498;-59
2022/07/21 04:57:54;;;;;;;15.33;8.23;;;;;;;;;;731098;190;919369;-57
2022/07/21 05:00:20;;;;;;;12.60;8.00;;;;;;;;;;725468;191;920228;-59
2022/07/21 05:02:46;;;;;;;14.83;8.03;;;;;;;;;;725187;190;928347;-58
2022/07/21 05:05:12;;;;;;;10.23;8.23;;;;;;;;;;724289;191;807817;-59
2022/07/21 05:07:38;;;;;;;13.57;7.43;;;;;;;;;;731711;189;916609;-58
2022/07/21 05:10:04;;;;;;;11.30;7.70;;;;;;;;;;729042;190;635534;-58
2022/07/21 05:12:30;;;;;;;10.83;7.60;;;;;;;;;;724848;190;912773;-57
2022/07/21 05:14:56;;;;;;;15.50;9.03;;;;;;;;;;730309;190;632574;-56
2022/07/21 05:17:22;;;;;;;12.60;7.77;;;;;;;;;;728271;190;616745;-58
2022/07/21 05:19:50;;;;;;;10.60;7.83;;;;;;;;;;724988;192;626056;-57
2022/07/21 05:22:14;;;;;;;11.70;7.23;;;;;;;;;;723833;192;916068;-56
2022/07/21 05:24:39;;;;;;;14.90;7.50;;;;;;;;;;722933;193;919329;-56
2022/07/21 05:27:05;;;;;;;31.27;8.27;;;;;;;;;;726192;190;650065;-56
2022/07/21 05:29:32;;;;;;;12.98;7.50;;;;;;;;;;729158;193;628260;-58
2022/07/21 05:31:57;;;;;;;12.70;8.93;;;;;;;;;;736082;191;626493;-57
2022/07/21 05:34:23;;;;;;;9.20;7.47;;;;;;;;;;725322;191;615842;-58
2022/07/21 05:36:49;;;;;;;8.77;7.10;;;;;;;;;;724937;194;626291;-57
2022/07/21 05:39:15;;;;;;;12.10;8.33;;;;;;;;;;725758;191;915668;-57
2022/07/21 05:41:41;;;;;;;10.23;8.10;;;;;;;;;;720485;191;919828;-57
2022/07/21 05:44:07;;;;;;;13.27;7.65;;;;;;;;;;720980;191;916119;-58
2022/07/21 05:46:33;;;;;;;15.00;8.80;;;;;;;;;;726745;190;921527;-57
2022/07/21 05:48:59;;;;;;;14.90;8.60;;;;;;;;;;723419;191;920104;-57
2022/07/21 05:51:25;;;;;;;10.23;8.30;;;;;;;;;;724866;191;817100;-58
2022/07/21 05:53:51;;;;;;;9.27;6.97;;;;;;;;;;726633;191;809310;-58
2022/07/21 05:56:17;;;;;;;17.30;8.80;;;;;;;;;;721650;190;916786;-59
2022/07/21 05:58:42;;;;;;;14.73;7.50;;;;;;;;;;725240;190;813982;-58
2022/07/21 06:01:08;;;;;;;11.57;7.90;;;;;;;;;;726111;191;626336;-58
2022/07/21 06:03:34;;;;;;;9.53;6.87;;;;;;;;;;730022;192;625786;-58
2022/07/21 06:06:00;;;;;;;11.07;7.40;;;;;;;;;;722048;190;911823;-61
2022/07/21 06:08:26;;;;;;;12.17;7.30;;;;;;;;;;720824;190;922804;-58
2022/07/21 06:10:52;;;;;;;7.20;6.47;;;;;;;;;;729663;191;913062;-58
2022/07/21 06:13:18;;;;;;;9.70;7.10;;;;;;;;;;725675;190;789268;-58
2022/07/21 06:15:43;;;;;;;14.70;7.00;;;;;;;;;;723381;190;917044;-58
2022/07/21 06:18:09;;;;;;;11.40;7.47;;;;;;;;;;727775;190;915703;-57
2022/07/21 06:20:35;;;;;;;9.63;6.53;;;;;;;;;;723093;190;918877;-58
2022/07/21 06:23:01;;;;;;;7.50;6.63;;;;;;;;;;722087;190;917670;-59
2022/07/21 06:25:27;;;;;;;12.23;6.50;;;;;;;;;;724612;190;919119;-57
2022/07/21 06:27:53;;;;;;;14.23;7.10;;;;;;;;;;732355;190;902822;-57
2022/07/21 06:30:18;;;;;;;8.03;6.00;;;;;;;;;;722166;193;944403;-57
2022/07/21 06:32:44;;;;;;;12.60;7.00;;;;;;;;;;723532;192;919199;-58
2022/07/21 06:35:10;;;;;;;14.27;6.90;;;;;;;;;;728104;193;817447;-57
2022/07/21 06:37:36;;;;;;;16.33;7.13;;;;;;;;;;722514;193;919528;-58
2022/07/21 06:40:03;;;;;;;9.90;6.43;;;;;;;;;;724199;193;922281;-58
2022/07/21 06:42:28;;;;;;;11.80;7.50;;;;;;;;;;725616;193;919339;-58
2022/07/21 06:44:54;;;;;;;14.73;6.40;;;;;;;;;;720837;192;918967;-58
2022/07/21 06:47:19;;;;;;;9.87;6.00;;;;;;;;;;720591;191;819127;-58
2022/07/21 06:49:45;;;;;;;13.90;7.00;;;;;;;;;;723298;193;920584;-58
2022/07/21 06:52:11;;;;;;;10.00;7.07;;;;;;;;;;732820;190;815602;-58
2022/07/21 06:54:37;;;;;;;8.83;6.63;;;;;;;;;;720551;193;917079;-58
2022/07/21 06:57:03;;;;;;;14.27;5.90;;;;;;;;;;723003;191;911093;-58
2022/07/21 06:59:29;;;;;;;8.60;6.17;;;;;;;;;;727923;192;816271;-58
2022/07/21 07:01:55;;;;;;;9.27;6.90;;;;;;;;;;724050;193;816145;-59
2022/07/21 07:04:20;;;;;;;11.53;6.57;;;;;;;;;;719282;190;919338;-60
2022/07/21 07:06:50;;;;;;;9.33;8.30;;;;;;;;;;726657;193;920542;-58
2022/07/21 07:09:12;;;;;;;9.97;6.30;;;;;;;;;;723292;191;784557;-58
2022/07/21 07:11:39;;;;;;;10.40;6.90;;;;;;;;;;720194;191;919788;-58
2022/07/21 07:14:04;;;;;;;9.60;6.23;;;;;;;;;;727814;193;919583;-59
2022/07/21 07:16:30;;;;;;;7.93;6.40;;;;;;;;;;723779;190;819919;-58
2022/07/21 07:18:56;;;;;;;10.63;6.50;;;;;;;;;;722791;192;923531;-59
2022/07/21 07:21:21;;;;;;;9.33;5.90;;;;;;;;;;726140;190;922690;-59
2022/07/21 07:23:47;;;;;;;9.00;7.10;;;;;;;;;;729388;191;918864;-59
2022/07/21 07:26:13;;;;;;;7.60;6.60;;;;;;;;;;725199;190;919757;-58
2022/07/21 07:28:39;;;;;;;8.03;5.80;;;;;;;;;;723323;191;822440;-58
2022/07/21 07:31:05;;;;;;;8.57;6.30;;;;;;;;;;727393;193;818225;-59
2022/07/21 07:33:31;;;;;;;10.47;7.23;;;;;;;;;;721694;191;924702;-59
2022/07/21 07:35:57;;;;;;;8.47;6.40;;;;;;;;;;722262;191;819800;-59
2022/07/21 07:38:22;;;;;;;10.53;5.77;;;;;;;;;;727353;191;821315;-58
2022/07/21 07:40:48;;;;;;;9.80;5.93;;;;;;;;;;720844;191;819902;-59
2022/07/21 07:43:14;;;;;;;14.43;5.70;;;;;;;;;;721995;192;919950;-58
2022/07/21 07:45:40;;;;;;;6.97;5.20;;;;;;;;;;726667;191;816790;-59
2022/07/21 07:48:06;;;;;;;8.13;5.40;;;;;;;;;;730870;191;852648;-58
2022/07/21 07:50:32;;;;;;;8.90;5.60;;;;;;;;;;723408;193;854556;-58
2022/07/21 07:52:57;;;;;;;12.05;5.40;;;;;;;;;;721583;193;919285;-58
2022/07/21 07:55:23;;;;;;;9.93;5.60;;;;;;;;;;728424;193;819022;-60
2022/07/21 07:57:49;;;;;;;7.40;6.20;;;;;;;;;;720350;191;918798;-58
2022/07/21 08:00:15;;;;;;;9.07;4.90;;;;;;;;;;721490;193;868931;-57
2022/07/21 08:02:41;;;;;;;10.53;5.40;;;;;;;;;;726007;194;915437;-57
2022/07/21 08:05:08;;;;;;;8.43;5.70;;;;;;;;;;721869;190;917989;-58
2022/07/21 08:07:33;;;;;;;9.20;4.97;;;;;;;;;;721300;191;921034;-57
2022/07/21 08:09:59;;;;;;;6.33;5.23;;;;;;;;;;720849;193;827633;-58
2022/07/21 08:12:25;;;;;;;12.23;4.93;;;;;;;;;;727300;191;774618;-58
2022/07/21 08:14:51;;;;;;;4.93;4.30;;;;;;;;;;722086;190;913722;-59
2022/07/21 08:17:17;;;;;;;5.70;4.40;;;;;;;;;;723388;191;818859;-58
2022/07/21 08:19:43;;;;;;;8.60;4.33;;;;;;;;;;724764;191;857125;-59
2022/07/21 08:22:08;;;;;;;5.30;4.00;;;;;;;;;;720820;190;921395;-58
2022/07/21 08:24:34;;;;;;;4.73;4.07;;;;;;;;;;724630;190;810760;-59
2022/07/21 08:27:00;;;;;;;6.13;3.73;;;;;;;;;;726788;191;811731;-59
2022/07/21 08:29:26;;;;;;;6.33;3.57;;;;;;;;;;723871;193;919061;-60
2022/07/21 08:31:52;;;;;;;9.50;4.03;;;;;;;;;;724927;191;916795;-60
2022/07/21 08:34:18;;;;;;;4.70;3.20;;;;;;;;;;728750;191;916654;-60
2022/07/21 08:36:44;;;;;;;5.43;3.70;;;;;;;;;;723187;190;915067;-64
2022/07/21 08:39:09;;;;;;;5.20;3.40;;;;;;;;;;722811;190;861351;-60
2022/07/21 08:41:35;;;;;;;4.30;3.27;;;;;;;;;;720376;191;938992;-60
2022/07/21 08:44:01;;;;;;;5.17;3.33;;;;;;;;;;727220;190;855090;-60
2022/07/21 08:46:27;;;;;;;5.80;3.47;;;;;;;;;;723373;190;914570;-61
2022/07/21 08:48:53;;;;;;;5.13;4.03;;;;;;;;;;720998;190;917015;-60
2022/07/21 08:51:19;;;;;;;8.10;3.47;;;;;;;;;;726290;191;819465;-61
2022/07/21 08:53:45;;;;;;;7.60;4.00;;;;;;;;;;722339;191;916675;-59
2022/07/21 08:56:10;;;;;;;6.10;3.67;;;;;;;;;;720941;191;914202;-59
2022/07/21 08:58:37;;;;;;;5.83;3.37;;;;;;;;;;725554;191;918709;-60
2022/07/21 09:01:02;;;;;;;6.27;3.40;;;;;;;;;;723781;190;913520;-60
2022/07/21 09:03:29;;;;;;;5.67;2.97;;;;;;;;;;722203;190;921946;-60
2022/07/21 09:06:00;;;;;;;6.93;3.10;;;;;;;;;;722131;190;929145;-60
2022/07/21 09:08:28;;;;;;;5.97;2.83;;;;;;;;;;735230;188;922978;-61
2022/07/21 09:10:54;;;;;;;6.57;3.37;;;;;;;;;;722827;190;818675;-62
2022/07/21 09:13:20;;;;;;;6.20;3.30;;;;;;;;;;720543;191;914668;-62
2022/07/21 09:15:46;;;;;;;5.60;4.07;;;;;;;;;;727222;191;912696;-61
2022/07/21 09:18:13;;;;;;;5.70;3.10;;;;;;;;;;724489;193;816953;-60
2022/07/21 09:20:39;;;;;;;5.23;3.37;;;;;;;;;;723157;192;852700;-61
2022/07/21 09:23:07;;;;;;;4.80;2.80;;;;;;;;;;723462;192;919806;-61
2022/07/21 09:25:33;;;;;;;4.53;3.30;;;;;;;;;;724636;193;917758;-59
2022/07/21 09:28:04;;;;;;;5.80;2.83;;;;;;;;;;721037;191;917042;-61
2022/07/21 09:30:30;;;;;;;16.67;2.90;;;;;;;;;;724280;190;919067;-61
2022/07/21 09:32:56;;;;;;;15.90;3.77;;;;;;;;;;722200;191;918088;-59
2022/07/21 09:35:22;;;;;;;31.03;15.23;;;;;;;;;;733479;189;714709;-61
2022/07/21 09:37:48;;;;;;;5.80;3.17;;;;;;;;;;720353;191;919564;-60
2022/07/21 09:40:14;;;;;;;5.30;3.37;;;;;;;;;;722581;190;923484;-62
2022/07/21 09:42:40;;;;;;;8.30;3.23;;;;;;;;;;726996;193;905459;-61
2022/07/21 09:45:10;;;;;;;5.20;3.13;;;;;;;;;;725372;191;919965;-61
2022/07/21 09:47:38;;;;;;;6.90;3.00;;;;;;;;;;723037;191;919947;-61
2022/07/21 09:50:01;;;;;;;12.20;2.83;;;;;;;;;;726340;193;918770;-61
2022/07/21 09:52:29;;;;;;;4.77;2.57;;;;;;;;;;721568;193;824720;-60
2022/07/21 09:54:53;;;;;;;8.73;3.37;;;;;;;;;;721490;191;819272;-61
2022/07/21 09:57:19;;;;;;;6.77;3.20;;;;;;;;;;722394;192;852174;-61
2022/07/21 09:59:45;;;;;;;12.07;3.80;;;;;;;;;;726472;193;917135;-61
2022/07/21 10:02:10;;;;;;;6.63;3.00;;;;;;;;;;721898;193;920109;-61
2022/07/21 10:04:36;;;;;;;4.83;2.73;;;;;;;;;;722993;193;890293;-62
2022/07/21 10:07:02;;;;;;;4.67;3.73;;;;;;;;;;727938;193;919245;-62
2022/07/21 10:09:28;;;;;;;8.27;2.97;;;;;;;;;;723541;193;920566;-63
2022/07/21 10:11:54;;;;;;;7.93;3.37;;;;;;;;;;724045;191;919409;-61
2022/07/21 10:14:20;;;;;;;7.83;3.33;;;;;;;;;;727146;193;920189;-62
2022/07/21 10:16:45;;;;;;;5.53;2.90;;;;;;;;;;722809;191;893088;-62
2022/07/21 10:19:13;;;;;;;6.67;3.30;;;;;;;;;;720343;193;920905;-61
2022/07/21 10:21:45;;;;;;;23.47;3.93;;;;;;;;;;718910;193;919959;-64
2022/07/21 10:24:11;;;;;;;4.97;3.20;;;;;;;;;;724222;193;918930;-62
2022/07/21 10:26:36;;;;;;;6.10;3.63;;;;;;;;;;721664;192;920772;-61
2022/07/21 10:29:02;;;;;;;6.68;2.70;;;;;;;;;;721767;193;919119;-62
2022/07/21 10:31:28;;;;;;;5.60;3.67;;;;;;;;;;725019;193;920818;-63
2022/07/21 10:33:56;;;;;;;8.33;2.77;;;;;;;;;;723211;191;817805;-61
2022/07/21 10:36:41;;;;;;;6.83;2.90;;;;;;;;;;723149;191;814131;-61
2022/07/21 10:39:17;;;;;;;6.13;2.87;;;;;;;;;;723705;191;912481;-64
2022/07/21 10:41:45;;;;;;;5.40;3.13;;;;;;;;;;722157;193;916560;-62
2022/07/21 10:44:16;;;;;;;5.33;3.20;;;;;;;;;;722542;191;817498;-63
2022/07/21 10:46:42;;;;;;;6.67;3.43;;;;;;;;;;727762;190;822291;-63
2022/07/21 10:49:08;;;;;;;6.70;3.37;;;;;;;;;;723872;193;911583;-63
2022/07/21 10:51:34;;;;;;;7.65;3.45;;;;;;;;;;722484;191;917271;-63
2022/07/21 10:54:18;;;;;;;6.40;3.30;;;;;;;;;;724380;192;907440;-63
2022/07/21 10:56:44;;;;;;;8.30;3.80;;;;;;;;;;733847;193;744557;-64
2022/07/21 10:59:10;;;;;;;7.33;3.33;;;;;;;;;;723789;191;914263;-62
2022/07/21 11:01:37;;;;;;;6.43;3.33;;;;;;;;;;721827;190;918899;-62
2022/07/21 11:04:08;;;;;;;8.60;3.20;;;;;;;;;;724963;193;919316;-64
2022/07/21 11:06:34;;;;;;;4.67;2.83;;;;;;;;;;727916;191;921065;-65
2022/07/21 11:09:06;;;;;;;5.07;3.03;;;;;;;;;;725259;190;817770;-63
2022/07/21 11:11:31;;;;;;;5.23;3.47;;;;;;;;;;715701;190;816481;-61
2022/07/21 11:13:59;;;;;;;5.10;3.10;;;;;;;;;;721959;190;901139;-62
2022/07/21 11:16:24;;;;;;;4.60;3.27;;;;;;;;;;728272;190;915861;-60
2022/07/21 11:18:50;;;;;;;4.87;3.03;;;;;;;;;;723497;191;915407;-60
2022/07/21 11:21:16;;;;;;;6.40;3.20;;;;;;;;;;721332;191;919139;-64
2022/07/21 11:23:44;;;;;;;10.67;3.20;;;;;;;;;;728638;191;813429;-64
2022/07/21 11:26:10;;;;;;;4.40;3.57;;;;;;;;;;722583;191;816079;-61
2022/07/21 11:28:35;;;;;;;5.18;3.65;;;;;;;;;;722373;191;919403;-65
2022/07/21 11:31:06;;;;;;;10.23;3.17;;;;;;;;;;725858;190;919378;-61
2022/07/21 11:33:31;;;;;;;5.67;3.53;;;;;;;;;;729482;188;830646;-61
2022/07/21 11:35:58;;;;;;;6.13;3.13;;;;;;;;;;720935;193;921994;-64
2022/07/21 11:38:23;;;;;;;6.93;3.70;;;;;;;;;;722658;190;917661;-61
2022/07/21 11:40:49;;;;;;;7.77;3.20;;;;;;;;;;728480;191;640339;-61
2022/07/21 11:43:15;;;;;;;9.87;3.87;;;;;;;;;;724508;191;939271;-65
2022/07/21 11:45:41;;;;;;;6.90;3.20;;;;;;;;;;721027;193;922127;-64
2022/07/21 11:48:07;;;;;;;5.50;3.80;;;;;;;;;;724938;191;1021790;-63
2022/07/21 11:50:33;;;;;;;5.57;3.63;;;;;;;;;;720444;190;934636;-60
2022/07/21 11:52:58;;;;;;;6.93;3.40;;;;;;;;;;720884;191;922180;-64
2022/07/21 11:55:24;;;;;;;6.63;3.60;;;;;;;;;;724109;191;922172;-62
2022/07/21 11:57:50;;;;;;;6.80;4.23;;;;;;;;;;730821;190;919361;-61
2022/07/21 12:00:16;;;;;;;5.40;3.50;;;;;;;;;;721811;190;921718;-63
2022/07/21 12:02:42;;;;;;;11.13;3.60;;;;;;;;;;724054;191;819655;-63
2022/07/21 12:05:08;;;;;;;7.87;4.00;;;;;;;;;;726851;191;815061;-64
2022/07/21 12:07:34;;;;;;;6.43;4.27;;;;;;;;;;725987;190;813838;-64
2022/07/21 12:10:00;;;;;;;6.03;3.53;;;;;;;;;;722994;191;909634;-62
2022/07/21 12:12:27;;;;;;;8.80;3.57;;;;;;;;;;729048;191;817116;-64
2022/07/21 12:14:53;;;;;;;14.13;4.33;;;;;;;;;;725747;191;905067;-65
2022/07/21 12:17:34;;;;;;;9.37;3.90;;;;;;;;;;723873;190;914742;-64
2022/07/21 12:20:00;;;;;;;6.60;3.87;;;;;;;;;;726330;191;820898;-63
2022/07/21 12:22:32;;;;;;;8.00;4.03;;;;;;;;;;723461;192;817380;-64
2022/07/21 12:24:58;;;;;;;10.53;4.87;;;;;;;;;;728542;191;630216;-65
2022/07/21 12:27:23;;;;;;;6.53;4.17;;;;;;;;;;724342;190;814056;-68
2022/07/21 12:29:49;;;;;;;10.37;4.00;;;;;;;;;;725953;193;782692;-67
2022/07/21 12:32:15;;;;;;;8.63;4.20;;;;;;;;;;727143;191;918697;-63
2022/07/21 12:34:47;;;;;;;7.30;3.73;;;;;;;;;;721451;193;921059;-63
2022/07/21 12:37:12;;;;;;;10.00;4.50;;;;;;;;;;723117;193;816425;-68
2022/07/21 12:42:10;;;;;;;5.00;3.80;;;;;;;;;;727764;192;846561;-64
2022/07/21 12:44:36;;;;;;;10.27;4.23;;;;;;;;;;724513;190;786889;-68
2022/07/21 12:47:08;;;;;;;6.63;4.10;;;;;;;;;;723131;193;918951;-67
2022/07/21 12:49:33;;;;;;;7.57;3.90;;;;;;;;;;721046;190;943510;-67
2022/07/21 12:51:59;;;;;;;5.20;3.67;;;;;;;;;;724320;191;877661;-64
2022/07/21 12:54:25;;;;;;;12.33;5.23;;;;;;;;;;721844;190;820695;-64
2022/07/21 12:56:51;;;;;;;7.60;4.27;;;;;;;;;;722811;190;818394;-66
2022/07/21 12:59:17;;;;;;;10.70;4.50;;;;;;;;;;729553;191;634395;-67
2022/07/21 13:01:43;;;;;;;11.23;3.77;;;;;;;;;;723960;192;632788;-64
2022/07/21 13:04:08;;;;;;;7.93;4.57;;;;;;;;;;724975;191;681731;-63
2022/07/21 13:06:36;;;;;;;9.10;4.00;;;;;;;;;;726764;191;632077;-65
2022/07/21 13:09:00;;;;;;;5.30;3.17;;;;;;;;;;724512;191;634198;-65
2022/07/21 13:11:26;;;;;;;8.33;3.67;;;;;;;;;;726306;193;617578;-68
2022/07/21 13:13:52;;;;;;;10.83;4.30;;;;;;;;;;725981;191;649035;-64
2022/07/21 13:16:18;;;;;;;7.10;3.50;;;;;;;;;;728490;192;635827;-65
2022/07/21 13:18:44;;;;;;;5.57;3.67;;;;;;;;;;726641;191;622760;-67
2022/07/21 13:21:09;;;;;;;8.43;4.00;;;;;;;;;;726820;190;652692;-66
2022/07/21 13:23:35;;;;;;;7.03;4.40;;;;;;;;;;729907;190;645311;-64
2022/07/21 13:26:01;;;;;;;5.30;3.60;;;;;;;;;;728325;191;614633;-64
2022/07/21 13:28:27;;;;;;;5.60;3.97;;;;;;;;;;726880;192;810916;-67
2022/07/21 13:30:53;;;;;;;6.73;5.10;;;;;;;;;;727950;191;915166;-69
2022/07/21 13:33:19;;;;;;;6.13;4.00;;;;;;;;;;726569;190;617140;-67
2022/07/21 13:35:44;;;;;;;5.00;4.00;;;;;;;;;;726898;190;659263;-63
2022/07/21 13:38:10;;;;;;;5.83;3.73;;;;;;;;;;726637;191;625191;-66
2022/07/21 13:40:36;;;;;;;10.40;3.83;;;;;;;;;;732479;192;639360;-65
2022/07/21 13:43:03;;;;;;;9.47;8.47;;;;;;;;;;727209;190;625291;-66
2022/07/21 13:45:28;;;;;;;6.93;3.90;;;;;;;;;;725580;190;631368;-66
2022/07/21 13:47:54;;;;;;;8.57;3.60;;;;;;;;;;728738;193;917085;-69
2022/07/21 13:50:20;;;;;;;8.83;4.53;;;;;;;;;;727705;190;631632;-66
2022/07/21 13:52:46;;;;;;;8.23;3.43;;;;;;;;;;726364;191;650825;-64
2022/07/21 13:55:12;;;;;;;5.20;3.40;;;;;;;;;;730131;190;622848;-66
2022/07/21 13:57:38;;;;;;;6.37;4.23;;;;;;;;;;725512;190;617213;-68
2022/07/21 14:00:04;;;;;;;5.37;3.50;;;;;;;;;;724960;191;620687;-66
2022/07/21 14:02:30;;;;;;;5.27;3.70;;;;;;;;;;727315;190;656839;-67
2022/07/21 14:04:56;;;;;;;5.10;3.90;;;;;;;;;;729738;192;631141;-67
2022/07/21 14:07:22;;;;;;;8.10;3.93;;;;;;;;;;724677;191;744437;-67
2022/07/21 14:09:48;;;;;;;6.77;3.20;;;;;;;;;;725864;190;632116;-64
2022/07/21 14:12:15;;;;;;;6.50;3.80;;;;;;;;;;728531;191;628257;-67
2022/07/21 14:14:41;;;;;;;5.83;3.60;;;;;;;;;;726933;192;629840;-67
2022/07/21 14:17:06;;;;;;;6.77;4.07;;;;;;;;;;725986;191;626849;-71
2022/07/21 14:19:32;;;;;;;7.87;4.00;;;;;;;;;;728191;193;626161;-70
2022/07/21 14:21:57;;;;;;;5.57;3.63;;;;;;;;;;723817;191;692748;-66
2022/07/21 14:26:55;;;;;;;5.80;4.00;;;;;;;;;;725584;191;632936;-65